Time;durP1;ratioP1;P1;durP2;ratioP2;P2;SDS_P1;SDS_P2;PMS_P1;PMS_P2;Temp;Humidity;BMP_temperature;BMP_pressure;BME280_temperature;BME280_humidity;BME280_pressure;Samples;Min_cycle;Max_cycle;Signal;HPM_P1;HPM_P2
2022/11/20 00:00:22;;;;;;;0.00;0.00;;;;;;;16.07;53.38;101602.50;2097070;28;20123;-75
2022/11/20 00:01:26;;;;;;;0.00;0.00;;;;;;;16.13;53.43;101606.50;2094873;28;20060;-74
2022/11/20 00:02:28;;;;;;;0.00;0.00;;;;;;;16.11;53.37;101608.03;2103561;28;20295;-75
2022/11/20 00:03:31;;;;;;;0.00;0.00;;;;;;;16.11;53.38;101608.03;2102466;28;20114;-74
2022/11/20 00:04:34;;;;;;;0.00;0.00;;;;;;;16.09;53.39;101605.63;2089139;28;20060;-74
2022/11/20 00:05:35;;;;;;;0.00;0.00;;;;;;;16.09;53.26;101608.34;2089583;28;20452;-74
2022/11/20 00:06:38;;;;;;;0.00;0.00;;;;;;;16.09;53.39;101599.41;2091885;28;20444;-75
2022/11/20 00:07:41;;;;;;;0.00;0.00;;;;;;;16.08;53.47;101598.63;2082447;28;20418;-75
2022/11/20 00:08:44;;;;;;;0.00;0.00;;;;;;;16.07;53.57;101594.31;2085908;28;20084;-75
2022/11/20 00:09:46;;;;;;;0.00;0.00;;;;;;;16.06;53.67;101603.63;2093317;28;20052;-75
2022/11/20 00:10:49;;;;;;;0.00;0.00;;;;;;;16.05;53.64;101596.59;2095701;28;20075;-75
2022/11/20 00:11:51;;;;;;;0.00;0.00;;;;;;;16.04;53.45;101595.03;2093420;28;20055;-74
2022/11/20 00:12:54;;;;;;;0.00;0.00;;;;;;;16.04;53.54;101589.59;2089802;28;20887;-75
2022/11/20 00:13:57;;;;;;;0.00;0.00;;;;;;;16.03;53.58;101593.44;2088617;28;20508;-75
2022/11/20 00:15:00;;;;;;;0.00;0.00;;;;;;;16.01;53.77;101593.03;2085869;28;20061;-75
2022/11/20 00:16:04;;;;;;;0.00;0.00;;;;;;;16.03;53.55;101595.41;2086029;28;20057;-75
2022/11/20 00:17:07;;;;;;;0.10;0.10;;;;;;;16.01;53.58;101598.50;2088474;28;20630;-75
2022/11/20 00:18:09;;;;;;;0.00;0.00;;;;;;;16.00;53.52;101596.09;2076493;28;20053;-75
2022/11/20 00:19:12;;;;;;;0.00;0.00;;;;;;;16.00;53.50;101596.88;2084831;28;20060;-74
2022/11/20 00:20:14;;;;;;;0.00;0.00;;;;;;;15.93;53.43;101590.53;2096815;28;20550;-74
2022/11/20 00:21:19;;;;;;;0.00;0.00;;;;;;;16.00;53.43;101593.38;2082327;28;20077;-75
2022/11/20 00:22:22;;;;;;;0.00;0.00;;;;;;;15.97;53.51;101597.59;2084056;28;20057;-74
2022/11/20 00:23:26;;;;;;;0.00;0.00;;;;;;;15.98;53.60;101599.19;2101816;28;20055;-74
2022/11/20 00:24:28;;;;;;;0.00;0.00;;;;;;;15.96;53.38;101601.50;2097891;28;20048;-74
2022/11/20 00:25:31;;;;;;;0.00;0.00;;;;;;;15.97;53.56;101597.59;2099867;28;20048;-74
2022/11/20 00:26:33;;;;;;;0.00;0.00;;;;;;;15.95;53.49;101599.91;2088587;28;20627;-75
2022/11/20 00:27:36;;;;;;;0.00;0.00;;;;;;;15.95;53.49;101594.44;2091773;28;20547;-74
2022/11/20 00:28:37;;;;;;;0.03;0.03;;;;;;;15.94;53.77;101603.78;2096208;28;20052;-74
2022/11/20 00:29:40;;;;;;;0.00;0.00;;;;;;;15.94;53.40;101601.06;2095512;28;20048;-75
2022/11/20 00:30:42;;;;;;;0.00;0.00;;;;;;;15.93;53.48;101599.50;2095854;28;20060;-75
2022/11/20 00:31:45;;;;;;;0.00;0.00;;;;;;;15.93;53.66;101599.50;2103083;28;20517;-75
2022/11/20 00:32:46;;;;;;;0.00;0.00;;;;;;;15.91;53.49;101596.31;2093141;28;20091;-74
2022/11/20 00:33:49;;;;;;;0.00;0.00;;;;;;;15.92;53.36;101599.84;2081677;28;20053;-74
2022/11/20 00:34:51;;;;;;;0.00;0.00;;;;;;;15.92;53.48;101605.28;2084039;28;20057;-74
2022/11/20 00:35:54;;;;;;;0.00;0.00;;;;;;;15.88;53.55;101594.31;2093291;28;20467;-75
2022/11/20 00:36:56;;;;;;;0.00;0.00;;;;;;;15.91;53.57;101598.25;2097457;28;20524;-75
2022/11/20 00:37:58;;;;;;;0.00;0.00;;;;;;;15.89;53.48;101595.88;2100414;28;20056;-75
2022/11/20 00:39:02;;;;;;;0.00;0.00;;;;;;;15.90;53.47;101593.97;2080386;28;20464;-75
2022/11/20 00:40:06;;;;;;;0.00;0.00;;;;;;;15.89;53.41;101589.63;2082137;28;20053;-75
2022/11/20 00:41:09;;;;;;;0.00;0.00;;;;;;;15.88;53.51;101591.59;2088337;28;20316;-75
2022/11/20 00:42:12;;;;;;;0.00;0.00;;;;;;;15.87;53.56;101595.44;2092478;28;20053;-75
2022/11/20 00:43:14;;;;;;;0.00;0.00;;;;;;;15.87;53.65;101591.94;2096605;28;20080;-75
2022/11/20 00:44:16;;;;;;;0.00;0.00;;;;;;;15.85;53.28;101589.59;2101765;28;20067;-75
2022/11/20 00:45:18;;;;;;;0.00;0.00;;;;;;;15.86;53.29;101598.53;2089447;28;20087;-75
2022/11/20 00:46:23;;;;;;;0.00;0.00;;;;;;;15.86;53.42;101587.63;2095496;28;20063;-75
2022/11/20 00:47:25;;;;;;;0.00;0.00;;;;;;;15.84;53.39;101593.44;2098574;28;20071;-74
2022/11/20 00:48:28;;;;;;;0.00;0.00;;;;;;;15.84;53.56;101596.16;2088696;28;20528;-74
2022/11/20 00:49:30;;;;;;;0.00;0.00;;;;;;;15.83;53.60;101591.88;2082678;28;20053;-74
2022/11/20 00:50:33;;;;;;;0.00;0.00;;;;;;;15.83;53.66;101591.88;2084020;28;20053;-74
2022/11/20 00:51:34;;;;;;;0.00;0.00;;;;;;;15.82;53.69;101590.31;2093192;28;20067;-75
2022/11/20 00:52:37;;;;;;;0.00;0.00;;;;;;;15.83;53.38;101586.44;2088370;28;20053;-74
2022/11/20 00:53:39;;;;;;;0.00;0.00;;;;;;;15.83;53.32;101582.91;2084952;28;20076;-75
2022/11/20 00:54:43;;;;;;;0.00;0.00;;;;;;;15.83;53.40;101591.06;2083318;28;20084;-74
2022/11/20 00:55:52;;;;;;;0.00;0.00;;;;;;;15.78;53.51;101588.63;2082674;28;20519;-75
2022/11/20 00:56:55;;;;;;;0.00;0.00;;;;;;;15.77;53.67;101582.41;2087353;28;20053;-75
2022/11/20 00:57:57;;;;;;;0.00;0.00;;;;;;;15.77;53.53;101590.59;2095885;28;20060;-75
2022/11/20 00:59:03;;;;;;;0.00;0.00;;;;;;;15.78;53.69;101580.47;2093871;28;20912;-75
2022/11/20 01:00:06;;;;;;;0.00;0.00;;;;;;;15.78;53.68;101586.69;2084042;28;20563;-75
2022/11/20 01:01:10;;;;;;;0.00;0.00;;;;;;;15.78;53.46;101583.19;2083705;28;20049;-75
2022/11/20 01:02:12;;;;;;;0.00;0.00;;;;;;;15.76;53.57;101580.06;2096217;28;20052;-76
2022/11/20 01:03:15;;;;;;;0.00;0.00;;;;;;;15.77;53.59;101578.91;2090028;28;20539;-75
2022/11/20 01:04:17;;;;;;;0.00;0.00;;;;;;;15.76;53.66;101575.38;2093458;28;20056;-75
2022/11/20 01:05:19;;;;;;;0.00;0.00;;;;;;;15.75;53.42;101579.25;2094405;28;20060;-74
2022/11/20 01:06:23;;;;;;;0.00;0.00;;;;;;;15.76;53.49;101577.34;2090788;28;20052;-74
2022/11/20 01:07:26;;;;;;;0.00;0.00;;;;;;;15.75;53.66;101583.91;2096034;28;20065;-75
2022/11/20 01:08:31;;;;;;;0.03;0.03;;;;;;;15.72;53.45;101579.97;2095410;28;20511;-74
2022/11/20 01:09:34;;;;;;;0.00;0.00;;;;;;;15.72;53.54;101585.41;2094128;28;20516;-74
2022/11/20 01:10:37;;;;;;;0.00;0.00;;;;;;;15.74;53.71;101585.84;2095871;28;20638;-74
2022/11/20 01:11:43;;;;;;;0.00;0.00;;;;;;;15.69;53.60;101575.25;2089839;28;20053;-75
2022/11/20 01:13:36;;;;;;;0.00;0.00;;;;;;;15.71;53.76;101583.84;2087045;28;20575;-75
2022/11/20 01:14:12;;;;;;;0.00;0.00;;;;;;;15.68;53.74;101573.66;2095131;28;20053;-74
2022/11/20 01:15:13;;;;;;;0.00;0.00;;;;;;;15.68;53.78;101579.09;2099136;28;20053;-73
2022/11/20 01:16:18;;;;;;;0.00;0.00;;;;;;;15.69;53.56;101577.16;2101712;28;20039;-75
2022/11/20 01:17:20;;;;;;;0.00;0.00;;;;;;;15.68;53.55;101578.31;2094763;28;20064;-74
2022/11/20 01:18:22;;;;;;;0.00;0.00;;;;;;;15.68;53.41;101565.47;2090874;28;20090;-75
2022/11/20 01:19:24;;;;;;;0.00;0.00;;;;;;;15.68;53.69;101579.09;2086459;28;20052;-74
2022/11/20 01:20:27;;;;;;;0.00;0.00;;;;;;;15.69;53.78;101579.88;2087882;28;20660;-74
2022/11/20 01:21:32;;;;;;;0.00;0.00;;;;;;;15.69;53.60;101569.00;2090216;28;20057;-75
2022/11/20 01:22:35;;;;;;;0.00;0.00;;;;;;;15.67;53.68;101577.53;2096322;28;20053;-75
2022/11/20 01:23:38;;;;;;;0.00;0.00;;;;;;;15.67;53.58;101572.06;2090549;28;20579;-74
2022/11/20 01:24:41;;;;;;;0.00;0.00;;;;;;;15.66;53.76;101565.06;2087661;28;20060;-74
2022/11/20 01:25:44;;;;;;;0.00;0.00;;;;;;;15.66;53.77;101565.06;2088156;28;20049;-74
2022/11/20 01:26:49;;;;;;;0.00;0.00;;;;;;;15.67;53.74;101565.84;2090751;28;20068;-75
2022/11/20 01:27:51;;;;;;;0.20;0.20;;;;;;;15.65;53.59;101560.75;2102124;28;20056;-74
2022/11/20 01:28:54;;;;;;;0.00;0.00;;;;;;;15.67;53.60;101574.00;2090860;28;20064;-75
2022/11/20 01:29:56;;;;;;;0.05;0.05;;;;;;;15.65;53.69;101568.91;2088643;28;20049;-74
2022/11/20 01:31:12;;;;;;;0.00;0.00;;;;;;;15.62;53.41;101569.63;2094423;28;20092;-75
2022/11/20 01:32:15;;;;;;;0.00;0.00;;;;;;;15.59;53.41;101562.19;2092473;28;20067;-75
2022/11/20 01:33:17;;;;;;;0.00;0.00;;;;;;;15.63;53.74;101564.97;2085937;28;20048;-74
2022/11/20 01:34:22;;;;;;;0.00;0.00;;;;;;;15.62;53.85;101566.91;2080512;28;20061;-75
2022/11/20 01:35:23;;;;;;;0.00;0.00;;;;;;;15.62;53.83;101566.91;2089871;28;20056;-76
2022/11/20 01:36:28;;;;;;;0.00;0.00;;;;;;;15.63;53.56;101565.78;2093144;28;20063;-73
2022/11/20 01:37:30;;;;;;;0.10;0.10;;;;;;;15.62;53.73;101569.63;2094207;28;20459;-75
2022/11/20 01:38:33;;;;;;;0.00;0.00;;;;;;;15.63;53.71;101564.97;2091348;28;20072;-75
2022/11/20 01:39:36;;;;;;;0.00;0.00;;;;;;;15.62;53.76;101564.19;2093551;28;20048;-73
2022/11/20 01:40:37;;;;;;;0.00;0.00;;;;;;;15.62;53.74;101566.91;2087588;28;20520;-74
2022/11/20 01:43:24;;;;;;;;;;;;;;;15.37;54.20;101553.88;2095590;28;20052;-75
2022/11/20 01:44:48;;;;;;;0.00;0.00;;;;;;;15.41;54.15;101555.59;2098373;28;19928;-74
2022/11/20 01:46:14;;;;;;;0.00;0.00;;;;;;;15.45;54.01;101553.72;2099415;28;20056;-75
2022/11/20 01:47:20;;;;;;;0.00;0.00;;;;;;;15.49;54.06;101549.13;2092352;28;20052;-75
2022/11/20 01:48:26;;;;;;;0.00;0.00;;;;;;;15.51;53.75;101549.56;2092790;28;20052;-75
2022/11/20 01:49:35;;;;;;;0.00;0.00;;;;;;;15.52;53.93;101545.72;2090809;28;20092;-75
2022/11/20 01:50:37;;;;;;;0.00;0.00;;;;;;;15.51;53.84;101549.56;2094445;28;20086;-74
2022/11/20 01:51:42;;;;;;;0.00;0.00;;;;;;;15.47;53.76;101534.31;2089835;28;20500;-75
2022/11/20 01:52:49;;;;;;;0.00;0.00;;;;;;;15.52;53.65;101543.00;2089613;28;20543;-75
2022/11/20 01:53:54;;;;;;;0.00;0.00;;;;;;;15.52;53.95;101543.00;2092631;28;20041;-75
2022/11/20 01:55:03;;;;;;;0.00;0.00;;;;;;;15.51;53.80;101535.94;2096161;28;20071;-75
2022/11/20 01:56:09;;;;;;;0.00;0.00;;;;;;;15.53;53.89;101546.47;2096450;28;20063;-75
2022/11/20 01:57:14;;;;;;;0.00;0.00;;;;;;;15.52;53.84;101545.72;2098687;28;20566;-74
2022/11/20 01:58:19;;;;;;;0.03;0.03;;;;;;;15.51;53.82;101535.94;2090236;28;20053;-75
2022/11/20 01:59:23;;;;;;;0.00;0.00;;;;;;;15.51;53.81;101535.16;2097170;28;20040;-75
2022/11/20 02:00:26;;;;;;;0.00;0.00;;;;;;;15.51;53.75;101535.94;2093423;28;20052;-75
2022/11/20 02:01:28;;;;;;;0.00;0.00;;;;;;;15.52;53.90;101536.75;2090017;28;20079;-75
2022/11/20 02:02:31;;;;;;;0.00;0.00;;;;;;;15.52;53.82;101534.81;2095775;28;20738;-75
2022/11/20 02:03:33;;;;;;;0.08;0.08;;;;;;;15.50;53.70;101528.94;2096962;28;20052;-75
2022/11/20 02:04:36;;;;;;;0.00;0.00;;;;;;;15.52;53.59;101529.38;2097692;28;20064;-75
2022/11/20 02:05:44;;;;;;;0.00;0.00;;;;;;;15.52;53.65;101521.22;2092564;28;20048;-75
2022/11/20 02:06:50;;;;;;;0.00;0.00;;;;;;;15.51;53.90;101522.34;2095332;28;20057;-74
2022/11/20 02:07:54;;;;;;;0.00;0.00;;;;;;;15.50;53.91;101523.50;2087636;28;20056;-75
2022/11/20 02:08:56;;;;;;;0.00;0.00;;;;;;;15.50;53.83;101518.06;2083506;28;20729;-76
2022/11/20 02:09:58;;;;;;;0.00;0.00;;;;;;;15.51;53.83;101518.81;2090252;28;20103;-75
2022/11/20 02:11:01;;;;;;;0.00;0.00;;;;;;;15.50;53.67;101512.63;2105788;28;20527;-75
2022/11/20 02:12:04;;;;;;;0.10;0.10;;;;;;;15.51;53.87;101518.81;2099018;28;20063;-75
2022/11/20 02:14:29;;;;;;;0.00;0.00;;;;;;;15.46;53.87;101519.91;2098029;28;20048;-75
2022/11/20 02:15:32;;;;;;;0.10;0.10;;;;;;;15.48;53.61;101511.38;2095658;28;20479;-74
2022/11/20 02:16:38;;;;;;;0.00;0.00;;;;;;;15.48;53.90;101509.44;2094889;28;20048;-75
2022/11/20 02:17:40;;;;;;;0.00;0.00;;;;;;;15.48;53.88;101509.44;2092982;28;20421;-75
2022/11/20 02:18:44;;;;;;;0.00;0.00;;;;;;;15.48;53.87;101509.44;2099134;28;20067;-76
2022/11/20 02:19:46;;;;;;;0.00;0.00;;;;;;;15.49;53.95;101510.25;2099742;28;20052;-75
2022/11/20 02:20:53;;;;;;;0.00;0.00;;;;;;;15.49;53.68;101510.25;2104573;28;20059;-76
2022/11/20 02:22:03;;;;;;;0.20;0.20;;;;;;;15.48;53.74;101524.97;2102010;28;20070;-75
2022/11/20 02:23:11;;;;;;;0.00;0.00;;;;;;;15.46;53.61;101524.56;2095642;28;20049;-76
2022/11/20 02:24:16;;;;;;;0.00;0.00;;;;;;;15.46;53.69;101522.63;2098605;28;20089;-75
2022/11/20 02:25:19;;;;;;;0.00;0.00;;;;;;;15.42;53.66;101512.81;2097972;28;20060;-75
2022/11/20 02:26:24;;;;;;;0.00;0.00;;;;;;;15.47;53.95;101523.41;2099495;28;20697;-74
2022/11/20 02:27:27;;;;;;;0.00;0.00;;;;;;;15.47;53.69;101524.22;2097869;28;20102;-75
2022/11/20 02:28:30;;;;;;;0.00;0.00;;;;;;;15.47;53.67;101526.94;2094103;28;20083;-74
2022/11/20 02:29:37;;;;;;;0.00;0.00;;;;;;;15.47;53.58;101516.06;2086482;28;20064;-74
2022/11/20 02:30:39;;;;;;;0.00;0.00;;;;;;;15.46;53.84;101519.13;2093520;28;20049;-75
2022/11/20 02:31:44;;;;;;;0.00;0.00;;;;;;;15.46;53.82;101517.19;2102789;28;20056;-75
2022/11/20 02:32:45;;;;;;;0.00;0.00;;;;;;;15.46;53.77;101519.13;2094773;28;20052;-74
2022/11/20 02:33:48;;;;;;;0.00;0.00;;;;;;;15.46;53.72;101505.53;2089758;28;20424;-74
2022/11/20 02:34:50;;;;;;;0.00;0.00;;;;;;;15.46;53.97;101510.97;2089480;28;20063;-75
2022/11/20 02:35:53;;;;;;;0.00;0.00;;;;;;;15.46;53.82;101510.97;2098047;28;20428;-74
2022/11/20 02:36:56;;;;;;;0.00;0.00;;;;;;;15.46;53.56;101511.72;2103012;28;20056;-75
2022/11/20 02:38:03;;;;;;;0.00;0.00;;;;;;;15.46;53.83;101506.28;2093306;28;20053;-74
2022/11/20 02:39:05;;;;;;;0.00;0.00;;;;;;;15.44;53.89;101508.59;2095336;28;20056;-74
2022/11/20 02:40:11;;;;;;;0.00;0.00;;;;;;;15.46;53.57;101506.28;2097786;28;20048;-75
2022/11/20 02:41:12;;;;;;;0.00;0.00;;;;;;;15.44;53.90;101508.59;2099213;28;20052;-75
2022/11/20 02:42:15;;;;;;;0.00;0.00;;;;;;;15.43;53.58;101507.00;2090312;28;20524;-75
2022/11/20 02:43:17;;;;;;;0.00;0.00;;;;;;;15.44;53.59;101503.16;2089637;28;20057;-74
2022/11/20 02:44:20;;;;;;;0.10;0.10;;;;;;;15.44;53.60;101505.09;2091441;28;20551;-74
2022/11/20 02:45:22;;;;;;;0.00;0.00;;;;;;;15.44;53.76;101514.03;2105047;28;20055;-76
2022/11/20 02:46:25;;;;;;;0.00;0.00;;;;;;;15.41;53.62;101498.44;2097827;28;20056;-76
2022/11/20 02:47:27;;;;;;;0.03;0.03;;;;;;;15.44;53.71;101508.59;2093849;28;20056;-76
2022/11/20 02:48:30;;;;;;;0.00;0.00;;;;;;;15.45;53.80;101506.66;2088685;28;20052;-75
2022/11/20 02:49:35;;;;;;;0.00;0.00;;;;;;;15.41;53.66;101506.59;2089879;28;20092;-73
2022/11/20 02:50:39;;;;;;;0.00;0.00;;;;;;;15.43;53.58;101500.81;2097648;28;20122;-74
2022/11/20 02:51:41;;;;;;;0.00;0.00;;;;;;;15.43;53.80;101509.72;2097780;28;20044;-75
2022/11/20 02:52:43;;;;;;;0.00;0.00;;;;;;;15.43;53.52;101501.56;2099293;28;20056;-76
2022/11/20 02:53:46;;;;;;;0.00;0.00;;;;;;;15.43;53.62;101504.28;2099093;28;20053;-76
2022/11/20 02:54:48;;;;;;;0.00;0.00;;;;;;;15.43;53.74;101507.00;2085923;28;20139;-74
2022/11/20 02:55:52;;;;;;;0.00;0.00;;;;;;;15.44;53.52;101503.16;2082275;28;20525;-75
2022/11/20 02:56:54;;;;;;;0.00;0.00;;;;;;;15.43;53.55;101504.28;2083511;28;20104;-74
2022/11/20 02:57:56;;;;;;;0.00;0.00;;;;;;;15.43;53.60;101503.53;2084021;28;20489;-75
2022/11/20 02:58:58;;;;;;;0.00;0.00;;;;;;;15.43;53.68;101500.81;2082843;28;20053;-76
2022/11/20 03:00:01;;;;;;;0.00;0.00;;;;;;;15.43;53.43;101501.56;2089021;28;20057;-74
2022/11/20 03:01:03;;;;;;;0.00;0.00;;;;;;;15.43;53.52;101507.00;2095697;28;20061;-76
2022/11/20 03:02:06;;;;;;;0.08;0.08;;;;;;;15.43;53.54;101500.81;2092904;28;20108;-76
2022/11/20 03:03:08;;;;;;;0.00;0.00;;;;;;;15.41;53.54;101495.72;2096482;28;20129;-76
2022/11/20 03:04:10;;;;;;;0.00;0.00;;;;;;;15.41;53.61;101495.72;2095219;28;20071;-74
2022/11/20 03:05:12;;;;;;;0.00;0.00;;;;;;;15.43;53.63;101506.25;2086093;28;20055;-74
2022/11/20 03:06:16;;;;;;;0.00;0.00;;;;;;;15.43;53.38;101501.56;2095450;28;20049;-76
2022/11/20 03:07:18;;;;;;;0.00;0.00;;;;;;;15.42;53.54;101500.00;2100067;28;20057;-75
2022/11/20 03:08:20;;;;;;;0.00;0.00;;;;;;;15.38;53.58;101493.69;2094821;28;20055;-74
2022/11/20 03:09:22;;;;;;;0.00;0.00;;;;;;;15.42;53.68;101493.75;2088551;28;20120;-74
2022/11/20 03:10:25;;;;;;;0.00;0.00;;;;;;;15.41;53.44;101498.44;2097503;28;20554;-74
2022/11/20 03:11:29;;;;;;;0.00;0.00;;;;;;;15.40;53.56;101494.13;2098562;28;20052;-76
2022/11/20 03:12:31;;;;;;;0.00;0.00;;;;;;;15.40;53.59;101494.13;2092048;28;20520;-75
2022/11/20 03:13:35;;;;;;;0.10;0.10;;;;;;;15.40;53.48;101496.84;2094243;28;20052;-76
2022/11/20 03:14:37;;;;;;;0.00;0.00;;;;;;;15.40;53.42;101488.69;2097903;28;20045;-75
2022/11/20 03:15:39;;;;;;;0.00;0.00;;;;;;;15.41;53.69;101481.31;2104555;28;20055;-74
2022/11/20 03:16:41;;;;;;;0.00;0.00;;;;;;;15.37;53.49;101481.19;2100365;28;20059;-74
2022/11/20 03:17:44;;;;;;;0.00;0.00;;;;;;;15.38;53.60;101482.78;2094285;28;20051;-75
2022/11/20 03:18:47;;;;;;;0.00;0.00;;;;;;;15.40;53.67;101485.16;2093995;28;20045;-75
2022/11/20 03:19:49;;;;;;;0.00;0.00;;;;;;;15.37;53.39;101483.13;2102303;28;20489;-74
2022/11/20 03:20:58;;;;;;;0.00;0.00;;;;;;;15.37;53.68;101486.63;2092002;28;20053;-74
2022/11/20 03:22:00;;;;;;;0.00;0.00;;;;;;;15.35;53.48;101483.47;2089096;28;20057;-74
2022/11/20 03:23:03;;;;;;;0.00;0.00;;;;;;;15.39;53.50;101487.13;2091373;28;20056;-74
2022/11/20 03:24:05;;;;;;;0.00;0.00;;;;;;;15.39;53.59;101483.59;2089431;28;20093;-74
2022/11/20 03:25:09;;;;;;;0.00;0.00;;;;;;;15.39;53.36;101480.88;2091385;28;20060;-75
2022/11/20 03:26:13;;;;;;;0.00;0.00;;;;;;;15.37;53.49;101470.31;2091764;28;20056;-74
2022/11/20 03:27:17;;;;;;;0.00;0.00;;;;;;;15.39;53.43;101476.22;2103717;28;20048;-75
2022/11/20 03:28:19;;;;;;;0.00;0.00;;;;;;;15.38;53.38;101471.91;2100975;28;20052;-74
2022/11/20 03:29:22;;;;;;;0.00;0.00;;;;;;;15.38;53.64;101469.19;2092235;28;20048;-74
2022/11/20 03:30:24;;;;;;;0.00;0.00;;;;;;;15.35;53.38;101467.16;2090362;28;20507;-75
2022/11/20 03:31:34;;;;;;;0.00;0.00;;;;;;;15.37;53.72;101467.59;2091138;28;20136;-74
2022/11/20 03:32:36;;;;;;;0.00;0.00;;;;;;;15.36;53.78;101471.47;2090585;28;20113;-74
2022/11/20 03:33:39;;;;;;;0.00;0.00;;;;;;;15.37;53.65;101462.16;2097491;28;20052;-74
2022/11/20 03:34:41;;;;;;;0.00;0.00;;;;;;;15.36;53.62;101463.31;2094863;28;20412;-74
2022/11/20 03:35:44;;;;;;;0.00;0.00;;;;;;;15.29;53.53;101455.00;2096524;28;20059;-74
2022/11/20 03:36:46;;;;;;;0.00;0.00;;;;;;;15.36;53.69;101457.88;2089243;28;20049;-74
2022/11/20 03:37:49;;;;;;;0.00;0.00;;;;;;;15.37;53.30;101455.91;2086233;28;20053;-75
2022/11/20 03:38:50;;;;;;;0.00;0.00;;;;;;;15.36;53.67;101452.44;2094281;28;20107;-74
2022/11/20 03:39:53;;;;;;;0.00;0.00;;;;;;;15.36;53.63;101449.72;2092335;28;20067;-74
2022/11/20 03:40:58;;;;;;;0.00;0.00;;;;;;;15.33;53.57;101444.97;2081593;28;20037;-75
2022/11/20 03:42:01;;;;;;;0.00;0.00;;;;;;;15.36;53.68;101446.19;2084609;28;20061;-75
2022/11/20 03:43:04;;;;;;;0.00;0.00;;;;;;;15.36;53.47;101446.97;2089262;28;20053;-75
2022/11/20 03:44:09;;;;;;;0.00;0.00;;;;;;;15.35;53.43;101445.38;2096190;28;20045;-73
2022/11/20 03:45:11;;;;;;;0.00;0.00;;;;;;;15.34;53.51;101443.81;2080911;28;20046;-73
2022/11/20 03:46:14;;;;;;;0.00;0.00;;;;;;;15.34;53.50;101438.38;2084383;28;20053;-74
2022/11/20 03:47:15;;;;;;;0.00;0.00;;;;;;;15.35;53.67;101429.06;2083394;28;20072;-74
2022/11/20 03:48:18;;;;;;;0.00;0.00;;;;;;;15.36;53.44;101429.88;2088597;28;20500;-74
2022/11/20 03:49:21;;;;;;;0.00;0.00;;;;;;;15.36;53.44;101421.69;2091758;28;20077;-74
2022/11/20 03:50:23;;;;;;;0.00;0.00;;;;;;;15.35;53.60;101422.84;2091565;28;20057;-74
2022/11/20 03:51:27;;;;;;;0.00;0.00;;;;;;;15.35;53.59;101418.19;2095847;28;20049;-76
2022/11/20 03:52:29;;;;;;;0.00;0.00;;;;;;;15.34;53.60;101418.53;2085958;28;20069;-76
2022/11/20 03:53:32;;;;;;;0.00;0.00;;;;;;;15.34;53.43;101416.63;2088481;28;20061;-75
2022/11/20 03:54:33;;;;;;;0.00;0.00;;;;;;;15.34;53.68;101422.06;2089624;28;20063;-75
2022/11/20 03:55:36;;;;;;;0.00;0.00;;;;;;;15.34;53.51;101427.50;2088908;28;20068;-75
2022/11/20 03:56:39;;;;;;;0.00;0.00;;;;;;;15.34;53.62;101418.53;2084747;28;20084;-75
2022/11/20 03:57:41;;;;;;;0.00;0.00;;;;;;;15.34;53.59;101421.25;2103843;28;20047;-75
2022/11/20 03:58:45;;;;;;;0.00;0.00;;;;;;;15.34;53.62;101430.22;2098238;28;20052;-76
2022/11/20 03:59:47;;;;;;;0.00;0.00;;;;;;;15.33;53.63;101420.50;2093299;28;20056;-74
2022/11/20 04:00:49;;;;;;;0.00;0.00;;;;;;;15.33;53.58;101425.94;2089441;28;20061;-74
2022/11/20 04:01:52;;;;;;;0.00;0.00;;;;;;;15.34;53.53;101426.69;2093666;28;20072;-75
2022/11/20 04:02:57;;;;;;;0.00;0.00;;;;;;;15.33;53.52;101428.66;2090781;28;20055;-74
2022/11/20 04:04:00;;;;;;;0.00;0.00;;;;;;;15.25;53.52;101413.34;2097052;28;20060;-75
2022/11/20 04:05:03;;;;;;;0.00;0.00;;;;;;;15.32;53.46;101424.34;2094673;28;20048;-74
2022/11/20 04:06:07;;;;;;;0.00;0.00;;;;;;;15.32;53.43;101421.63;2094302;28;20061;-75
2022/11/20 04:07:09;;;;;;;0.00;0.00;;;;;;;15.31;53.57;101422.78;2088975;28;20071;-75
2022/11/20 04:08:12;;;;;;;0.00;0.00;;;;;;;15.29;53.63;101418.81;2099133;28;20048;-75
2022/11/20 04:09:15;;;;;;;0.00;0.00;;;;;;;15.31;53.73;101428.22;2096620;28;20137;-75
2022/11/20 04:10:18;;;;;;;0.00;0.00;;;;;;;15.31;53.37;101424.69;2096885;28;20060;-75
2022/11/20 04:11:22;;;;;;;0.00;0.00;;;;;;;15.31;53.39;101422.78;2089628;28;20052;-75
2022/11/20 04:12:24;;;;;;;0.00;0.00;;;;;;;15.30;53.55;101415.75;2091964;28;20845;-74
2022/11/20 04:13:26;;;;;;;0.00;0.00;;;;;;;15.28;53.42;101420.78;2088869;28;20052;-75
2022/11/20 04:14:30;;;;;;;0.00;0.00;;;;;;;15.31;53.33;101414.63;2090821;28;20056;-74
2022/11/20 04:15:32;;;;;;;0.00;0.00;;;;;;;15.25;53.61;101413.34;2089123;28;20084;-75
2022/11/20 04:16:40;;;;;;;0.00;0.00;;;;;;;15.29;53.51;101421.53;2095917;28;20420;-75
2022/11/20 04:17:41;;;;;;;0.00;0.00;;;;;;;15.29;53.63;101419.63;2093539;28;20060;-75
2022/11/20 04:18:44;;;;;;;0.00;0.00;;;;;;;15.29;53.50;101414.19;2089533;28;20814;-75
2022/11/20 04:19:47;;;;;;;0.00;0.00;;;;;;;15.29;53.41;101407.94;2088412;28;20048;-75
2022/11/20 04:20:49;;;;;;;0.00;0.00;;;;;;;15.29;53.49;101408.75;2105519;28;20055;-74
2022/11/20 04:21:52;;;;;;;0.00;0.00;;;;;;;15.28;53.29;101412.63;2103354;28;20048;-75
2022/11/20 04:22:54;;;;;;;0.00;0.00;;;;;;;15.28;53.51;101407.16;2096979;28;20067;-75
2022/11/20 04:23:57;;;;;;;0.00;0.00;;;;;;;15.29;53.54;101410.66;2091313;28;20053;-74
2022/11/20 04:24:59;;;;;;;0.00;0.00;;;;;;;15.27;53.57;101407.53;2087473;28;20060;-75
2022/11/20 04:26:03;;;;;;;0.00;0.00;;;;;;;15.28;53.39;101404.44;2080071;28;20057;-75
2022/11/20 04:27:06;;;;;;;0.00;0.00;;;;;;;15.28;53.48;101401.72;2091964;28;20044;-75
2022/11/20 04:28:08;;;;;;;0.00;0.00;;;;;;;15.28;53.58;101401.72;2091639;28;20060;-75
2022/11/20 04:29:11;;;;;;;0.00;0.00;;;;;;;15.29;53.35;101402.50;2096825;28;20055;-74
2022/11/20 04:30:18;;;;;;;0.00;0.00;;;;;;;15.27;53.81;101402.84;2099811;28;20052;-75
2022/11/20 04:31:22;;;;;;;0.00;0.00;;;;;;;15.27;53.36;101400.13;2086160;28;20056;-74
2022/11/20 04:32:25;;;;;;;0.00;0.00;;;;;;;15.27;53.68;101402.84;2080718;28;20648;-75
2022/11/20 04:33:27;;;;;;;0.00;0.00;;;;;;;15.26;53.71;101395.84;2087511;28;20452;-75
2022/11/20 04:34:35;;;;;;;0.00;0.00;;;;;;;15.27;53.66;101397.41;2093772;28;20491;-75
2022/11/20 04:35:37;;;;;;;0.00;0.00;;;;;;;15.26;53.49;101392.34;2089267;28;20063;-75
2022/11/20 04:36:40;;;;;;;0.00;0.00;;;;;;;15.25;53.43;101391.56;2084278;28;20048;-74
2022/11/20 04:37:42;;;;;;;0.00;0.00;;;;;;;15.27;53.54;101391.22;2084042;28;20083;-75
2022/11/20 04:38:45;;;;;;;0.00;0.00;;;;;;;15.27;53.37;101389.25;2083656;28;20060;-74
2022/11/20 04:39:47;;;;;;;0.00;0.00;;;;;;;15.24;53.54;101384.53;2093353;28;20103;-75
2022/11/20 04:40:49;;;;;;;0.00;0.00;;;;;;;15.26;53.50;101384.97;2088294;28;20725;-75
2022/11/20 04:42:28;;;;;;;0.00;0.00;;;;;;;15.20;53.49;101378.25;2088519;28;20044;-75
2022/11/20 04:43:14;;;;;;;0.00;0.00;;;;;;;15.22;53.44;101386.84;2097666;28;20502;-74
2022/11/20 04:44:16;;;;;;;0.00;0.00;;;;;;;15.23;53.65;101382.16;2095612;28;20053;-75
2022/11/20 04:45:20;;;;;;;0.00;0.00;;;;;;;15.25;53.58;101386.13;2093871;28;20055;-75
2022/11/20 04:46:22;;;;;;;0.00;0.00;;;;;;;15.23;53.32;101391.13;2095513;28;20067;-75
2022/11/20 04:47:25;;;;;;;0.00;0.00;;;;;;;15.25;53.50;101390.78;2096231;28;20060;-75
2022/11/20 04:48:28;;;;;;;0.00;0.00;;;;;;;15.24;53.48;101384.53;2093632;28;20519;-75
2022/11/20 04:49:31;;;;;;;0.00;0.00;;;;;;;15.24;53.50;101389.97;2086761;28;20064;-75
2022/11/20 04:50:33;;;;;;;0.00;0.00;;;;;;;15.23;53.59;101382.97;2088008;28;20133;-75
2022/11/20 04:51:36;;;;;;;0.00;0.00;;;;;;;15.24;53.53;101387.25;2085075;28;20064;-75
2022/11/20 04:52:38;;;;;;;0.00;0.00;;;;;;;15.21;53.63;101374.38;2084743;28;20535;-75
2022/11/20 04:53:40;;;;;;;0.00;0.00;;;;;;;15.23;53.76;101377.53;2091093;28;20615;-75
2022/11/20 04:54:42;;;;;;;0.00;0.00;;;;;;;15.23;53.55;101377.53;2093808;28;20063;-76
2022/11/20 04:55:45;;;;;;;0.00;0.00;;;;;;;15.22;53.64;101380.59;2085268;28;20068;-76
2022/11/20 04:56:47;;;;;;;0.00;0.00;;;;;;;15.20;53.42;101372.81;2094346;28;20053;-76
2022/11/20 04:57:51;;;;;;;0.00;0.00;;;;;;;15.23;53.73;101377.53;2097457;28;20049;-75